Time,TemperatureF,DewpointF,PressureIn,WindDirection,WindDirectionDegrees,WindSpeedMPH,WindSpeedGustMPH,Humidity,HourlyPrecipIn,Conditions,Clouds,dailyrainin,SoftwareType,DateUTC
2013-01-14 00:03:00,35.7,34.9,30.09,WNW,290,7.0,9.0,97,0.04,,,0.00,Wunderground v.1.15,2013-01-14 05:03:00,
2013-01-14 00:04:00,35.7,34.9,30.09,NW,306,7.0,11.0,97,0.04,,,0.00,Wunderground v.1.15,2013-01-14 05:04:00,
2013-01-14 00:05:00,35.7,34.9,30.09,WNW,302,6.0,11.0,97,0.04,,,0.00,Wunderground v.1.15,2013-01-14 05:05:00,
2013-01-14 00:07:00,35.7,34.9,30.09,WNW,298,6.0,11.0,97,0.04,,,0.00,Wunderground v.1.15,2013-01-14 05:07:00,
2013-01-14 00:13:00,35.6,34.8,30.10,NW,309,6.0,12.0,97,0.00,,,0.00,Wunderground v.1.15,2013-01-14 05:13:00,
2013-01-14 00:19:00,35.5,34.7,30.10,WSW,257,6.0,12.0,97,0.00,,,0.00,Wunderground v.1.15,2013-01-14 05:19:00,
2013-01-14 00:25:00,35.3,34.5,30.10,NNW,336,8.0,13.0,97,0.00,,,0.00,Wunderground v.1.15,2013-01-14 05:25:00,
2013-01-14 00:32:00,35.1,34.3,30.10,WNW,284,9.0,11.0,97,0.00,,,0.00,Wunderground v.1.15,2013-01-14 05:32:00,
2013-01-14 00:39:00,35.0,34.2,30.10,WNW,293,8.0,11.0,97,0.00,,,0.00,Wunderground v.1.15,2013-01-14 05:39:00,
2013-01-14 00:45:00,34.9,34.1,30.11,West,270,7.0,12.0,97,0.00,,,0.00,Wunderground v.1.15,2013-01-14 05:45:00,
2013-01-14 00:51:00,34.7,33.9,30.11,NW,325,7.0,7.0,97,0.00,,,0.00,Wunderground v.1.15,2013-01-14 05:51:00,
2013-01-14 00:57:00,34.6,33.8,30.11,NW,325,6.0,15.0,97,0.00,,,0.00,Wunderground v.1.15,2013-01-14 05:57:00,
2013-01-14 01:02:00,34.5,33.7,30.12,NW,321,6.0,30.0,97,0.00,,,0.00,Wunderground v.1.15,2013-01-14 06:02:00,
2013-01-14 01:08:00,34.5,33.7,30.11,WNW,288,5.0,30.0,97,0.00,,,0.00,Wunderground v.1.15,2013-01-14 06:08:00,
2013-01-14 01:14:00,34.5,33.7,30.11,West,281,5.0,30.0,97,0.00,,,0.00,Wunderground v.1.15,2013-01-14 06:14:00,
2013-01-14 01:20:00,34.4,33.6,30.11,WNW,293,5.0,30.0,97,0.00,,,0.00,Wunderground v.1.15,2013-01-14 06:20:00,
2013-01-14 01:26:00,34.4,33.6,30.11,West,265,4.0,30.0,97,0.00,,,0.00,Wunderground v.1.15,2013-01-14 06:26:00,
2013-01-14 01:31:00,34.4,33.6,30.12,WNW,283,5.0,30.0,97,0.00,,,0.00,Wunderground v.1.15,2013-01-14 06:31:00,
2013-01-14 01:37:00,34.4,33.6,30.13,WSW,240,7.0,30.0,97,0.00,,,0.00,Wunderground v.1.15,2013-01-14 06:37:00,
2013-01-14 01:42:00,34.3,33.5,30.13,West,260,9.0,30.0,97,0.00,,,0.00,Wunderground v.1.15,2013-01-14 06:42:00,
2013-01-14 01:47:00,34.2,33.4,30.13,NW,304,7.0,30.0,97,0.00,,,0.00,Wunderground v.1.15,2013-01-14 06:47:00,
2013-01-14 01:53:00,34.1,33.3,30.14,West,261,5.0,30.0,97,0.00,,,0.00,Wunderground v.1.15,2013-01-14 06:53:00,
2013-01-14 01:58:00,34.0,33.2,30.14,WSW,253,5.0,30.0,97,0.00,,,0.00,Wunderground v.1.15,2013-01-14 06:58:00,
2013-01-14 02:04:00,33.9,33.1,30.15,NNW,331,7.0,30.0,97,0.00,,,0.00,Wunderground v.1.15,2013-01-14 07:04:00,
2013-01-14 02:09:00,33.7,32.9,30.15,WSW,258,9.0,30.0,97,0.00,,,0.00,Wunderground v.1.15,2013-01-14 07:09:00,
2013-01-14 02:14:00,33.6,32.8,30.16,WSW,254,10.0,30.0,97,0.00,,,0.00,Wunderground v.1.15,2013-01-14 07:14:00,
2013-01-14 02:20:00,33.5,32.7,30.16,NW,312,9.0,30.0,97,0.00,,,0.00,Wunderground v.1.15,2013-01-14 07:20:00,
2013-01-14 02:25:00,33.5,32.7,30.17,West,267,8.0,30.0,97,0.00,,,0.00,Wunderground v.1.15,2013-01-14 07:25:00,
2013-01-14 02:31:00,33.5,32.5,30.18,WNW,286,7.0,30.0,96,0.00,,,0.00,Wunderground v.1.15,2013-01-14 07:31:00,
2013-01-14 02:37:00,33.4,32.4,30.18,West,271,9.0,30.0,96,0.00,,,0.00,Wunderground v.1.15,2013-01-14 07:37:00,
2013-01-14 02:43:00,33.3,32.3,30.18,WNW,296,9.0,30.0,96,0.00,,,0.00,Wunderground v.1.15,2013-01-14 07:43:00,
2013-01-14 02:48:00,33.3,32.3,30.18,West,276,9.0,30.0,96,0.00,,,0.00,Wunderground v.1.15,2013-01-14 07:48:00,
2013-01-14 02:54:00,33.3,32.3,30.19,West,278,7.0,30.0,96,0.00,,,0.00,Wunderground v.1.15,2013-01-14 07:54:00,
2013-01-14 02:59:00,33.1,32.1,30.20,WSW,248,7.0,30.0,96,0.00,,,0.00,Wunderground v.1.15,2013-01-14 07:59:00,
2013-01-14 03:04:00,33.0,32.0,30.20,WSW,252,8.0,30.0,96,0.00,,,0.00,Wunderground v.1.15,2013-01-14 08:04:00,
2013-01-14 03:10:00,33.0,31.7,30.20,NNW,328,7.0,30.0,95,0.00,,,0.00,Wunderground v.1.15,2013-01-14 08:10:00,
2013-01-14 03:15:00,32.8,31.5,30.22,West,278,8.0,30.0,95,0.00,,,0.00,Wunderground v.1.15,2013-01-14 08:15:00,
2013-01-14 03:21:00,32.5,31.2,30.22,WNW,288,11.0,30.0,95,0.00,,,0.00,Wunderground v.1.15,2013-01-14 08:21:00,
2013-01-14 03:27:00,32.5,31.2,30.22,West,266,9.0,30.0,95,0.00,,,0.00,Wunderground v.1.15,2013-01-14 08:27:00,
2013-01-14 03:32:00,32.3,30.8,30.22,West,271,8.0,30.0,94,0.00,,,0.00,Wunderground v.1.15,2013-01-14 08:32:00,
2013-01-14 03:38:00,32.2,30.7,30.23,WNW,284,9.0,30.0,94,0.00,,,0.00,Wunderground v.1.15,2013-01-14 08:38:00,
2013-01-14 03:43:00,32.1,30.6,30.23,NW,306,10.0,30.0,94,0.00,,,0.00,Wunderground v.1.15,2013-01-14 08:43:00,
2013-01-14 03:49:00,31.9,30.4,30.23,WNW,299,7.0,30.0,94,0.00,,,0.00,Wunderground v.1.15,2013-01-14 08:49:00,
2013-01-14 03:55:00,31.7,29.9,30.23,West,279,7.0,30.0,93,0.00,,,0.00,Wunderground v.1.15,2013-01-14 08:55:00,
2013-01-14 04:00:00,31.7,29.9,30.24,WNW,290,8.0,8.0,93,0.00,,,0.00,Wunderground v.1.15,2013-01-14 09:00:00,
2013-01-14 04:05:00,31.6,29.8,30.24,West,260,9.0,30.0,93,0.00,,,0.00,Wunderground v.1.15,2013-01-14 09:05:00,
2013-01-14 04:10:00,31.5,29.7,30.24,WNW,303,9.0,9.0,93,0.00,,,0.00,Wunderground v.1.15,2013-01-14 09:10:00,
2013-01-14 04:16:00,31.4,29.3,30.24,West,271,7.0,30.0,92,0.00,,,0.00,Wunderground v.1.15,2013-01-14 09:16:00,
2013-01-14 04:22:00,31.3,29.2,30.25,West,278,7.0,30.0,92,0.00,,,0.00,Wunderground v.1.15,2013-01-14 09:22:00,
2013-01-14 04:28:00,31.1,28.8,30.25,WNW,300,7.0,30.0,91,0.00,,,0.00,Wunderground v.1.15,2013-01-14 09:28:00,
2013-01-14 04:37:00,30.8,28.2,30.26,WNW,290,9.0,30.0,90,0.00,,,0.00,Wunderground v.1.15,2013-01-14 09:37:00,
2013-01-14 04:43:00,30.7,28.1,30.26,NW,309,7.0,30.0,90,0.00,,,0.00,Wunderground v.1.15,2013-01-14 09:43:00,
2013-01-14 04:49:00,30.5,27.9,30.26,NNW,330,6.0,30.0,90,0.00,,,0.00,Wunderground v.1.15,2013-01-14 09:49:00,
2013-01-14 04:54:00,30.4,27.5,30.26,NW,311,7.0,30.0,89,0.00,,,0.00,Wunderground v.1.15,2013-01-14 09:54:00,
2013-01-14 05:00:00,30.4,27.5,30.26,West,262,8.0,8.0,89,0.00,,,0.00,Wunderground v.1.15,2013-01-14 10:00:00,
2013-01-14 05:06:00,30.3,27.4,30.26,West,281,6.0,30.0,89,0.00,,,0.00,Wunderground v.1.15,2013-01-14 10:06:00,
2013-01-14 05:12:00,30.3,27.4,30.26,WSW,257,6.0,30.0,89,0.00,,,0.00,Wunderground v.1.15,2013-01-14 10:12:00,
2013-01-14 05:17:00,30.2,27.3,30.27,West,264,7.0,30.0,89,0.00,,,0.00,Wunderground v.1.15,2013-01-14 10:17:00,
2013-01-14 05:23:00,30.1,27.3,30.27,WNW,288,7.0,30.0,89,0.00,,,0.00,Wunderground v.1.15,2013-01-14 10:23:00,
2013-01-14 05:28:00,30.1,27.3,30.28,NW,308,7.0,30.0,89,0.00,,,0.00,Wunderground v.1.15,2013-01-14 10:28:00,
2013-01-14 05:34:00,29.9,26.5,30.28,West,277,9.0,30.0,87,0.00,,,0.00,Wunderground v.1.15,2013-01-14 10:34:00,
2013-01-14 05:40:00,29.7,26.3,30.28,West,263,11.0,30.0,87,0.00,,,0.00,Wunderground v.1.15,2013-01-14 10:40:00,
2013-01-14 05:46:00,29.7,26.3,30.29,West,267,9.0,30.0,87,0.00,,,0.00,Wunderground v.1.15,2013-01-14 10:46:00,
2013-01-14 05:52:00,29.7,26.6,30.29,WNW,288,7.0,30.0,88,0.00,,,0.00,Wunderground v.1.15,2013-01-14 10:52:00,
2013-01-14 05:58:00,29.7,26.6,30.30,WNW,288,8.0,30.0,88,0.00,,,0.00,Wunderground v.1.15,2013-01-14 10:58:00,
2013-01-14 06:03:00,29.7,26.6,30.30,West,273,7.0,9.0,88,0.00,,,0.00,Wunderground v.1.15,2013-01-14 11:03:00,
2013-01-14 06:09:00,29.6,26.5,30.30,WSW,256,7.0,14.0,88,0.00,,,0.00,Wunderground v.1.15,2013-01-14 11:09:00,
2013-01-14 06:15:00,29.6,26.5,30.31,West,267,10.0,11.0,88,0.00,,,0.00,Wunderground v.1.15,2013-01-14 11:15:00,
2013-01-14 06:21:00,29.5,26.4,30.31,WNW,288,10.0,10.0,88,0.00,,,0.00,Wunderground v.1.15,2013-01-14 11:21:00,
2013-01-14 06:27:00,29.4,26.3,30.32,WNW,302,9.0,13.0,88,0.00,,,0.00,Wunderground v.1.15,2013-01-14 11:27:00,
2013-01-14 06:32:00,29.3,25.9,30.32,West,281,8.0,11.0,87,0.00,,,0.00,Wunderground v.1.15,2013-01-14 11:32:00,
2013-01-14 06:38:00,29.1,25.4,30.33,WNW,290,7.0,12.0,86,0.00,,,0.00,Wunderground v.1.15,2013-01-14 11:38:00,
2013-01-14 06:44:00,29.0,25.6,30.33,West,260,6.0,12.0,87,0.00,,,0.00,Wunderground v.1.15,2013-01-14 11:44:00,
2013-01-14 06:50:00,29.0,25.6,30.33,WSW,247,6.0,6.0,87,0.00,,,0.00,Wunderground v.1.15,2013-01-14 11:50:00,
2013-01-14 06:56:00,29.0,25.6,30.34,NW,308,5.0,15.0,87,0.00,,,0.00,Wunderground v.1.15,2013-01-14 11:56:00,
2013-01-14 07:02:00,28.9,25.5,30.35,NW,320,5.0,23.0,87,0.00,,,0.00,Wunderground v.1.15,2013-01-14 12:02:00,
2013-01-14 07:08:00,28.8,25.4,30.35,WNW,301,5.0,23.0,87,0.00,,,0.00,Wunderground v.1.15,2013-01-14 12:08:00,
2013-01-14 07:14:00,28.7,25.0,30.35,WNW,286,7.0,23.0,86,0.00,,,0.00,Wunderground v.1.15,2013-01-14 12:14:00,
2013-01-14 07:19:00,28.5,24.8,30.36,West,261,9.0,23.0,86,0.00,,,0.00,Wunderground v.1.15,2013-01-14 12:19:00,
2013-01-14 07:25:00,28.5,25.1,30.36,West,270,8.0,23.0,87,0.00,,,0.00,Wunderground v.1.15,2013-01-14 12:25:00,
2013-01-14 07:31:00,28.4,25.0,30.37,WNW,288,7.0,9.0,87,0.00,,,0.00,Wunderground v.1.15,2013-01-14 12:31:00,
2013-01-14 07:37:00,28.4,25.0,30.37,WNW,290,8.0,23.0,87,0.00,,,0.00,Wunderground v.1.15,2013-01-14 12:37:00,
2013-01-14 07:43:00,28.3,24.6,30.38,WSW,241,9.0,23.0,86,0.00,,,0.00,Wunderground v.1.15,2013-01-14 12:43:00,
2013-01-14 07:49:00,28.1,24.5,30.38,West,273,8.0,23.0,86,0.00,,,0.00,Wunderground v.1.15,2013-01-14 12:49:00,
2013-01-14 07:54:00,27.9,24.3,30.38,WSW,252,7.0,23.0,86,0.00,,,0.00,Wunderground v.1.15,2013-01-14 12:54:00,
2013-01-14 08:00:00,27.8,24.2,30.39,West,260,8.0,23.0,86,0.00,,,0.00,Wunderground v.1.15,2013-01-14 13:00:00,
2013-01-14 08:06:00,27.7,24.1,30.39,WSW,254,9.0,23.0,86,0.00,,,0.00,Wunderground v.1.15,2013-01-14 13:06:00,
2013-01-14 08:12:00,27.7,24.3,30.40,West,278,8.0,23.0,87,0.00,,,0.00,Wunderground v.1.15,2013-01-14 13:12:00,
2013-01-14 08:18:00,27.7,24.1,30.40,West,269,6.0,23.0,86,0.00,,,0.00,Wunderground v.1.15,2013-01-14 13:18:00,
2013-01-14 08:23:00,27.6,24.0,30.41,West,265,6.0,23.0,86,0.00,,,0.00,Wunderground v.1.15,2013-01-14 13:23:00,
2013-01-14 08:29:00,27.4,24.0,30.41,WNW,286,6.0,23.0,87,0.00,,,0.00,Wunderground v.1.15,2013-01-14 13:29:00,
2013-01-14 08:35:00,27.3,23.7,30.41,West,274,6.0,23.0,86,0.00,,,0.00,Wunderground v.1.15,2013-01-14 13:35:00,
2013-01-14 08:41:00,27.3,23.9,30.41,WSW,246,4.0,10.0,87,0.00,,,0.00,Wunderground v.1.15,2013-01-14 13:41:00,
2013-01-14 08:46:00,27.2,23.6,30.42,WSW,257,6.0,23.0,86,0.00,,,0.00,Wunderground v.1.15,2013-01-14 13:46:00,
2013-01-14 08:52:00,27.2,23.3,30.43,NW,309,7.0,23.0,85,0.00,,,0.00,Wunderground v.1.15,2013-01-14 13:52:00,
2013-01-14 08:58:00,27.2,23.3,30.43,WSW,254,4.0,23.0,85,0.00,,,0.00,Wunderground v.1.15,2013-01-14 13:58:00,
2013-01-14 09:04:00,27.2,23.3,30.43,WSW,252,5.0,9.0,85,0.00,,,0.00,Wunderground v.1.15,2013-01-14 14:04:00,
2013-01-14 09:09:00,27.1,23.2,30.44,West,265,6.0,11.0,85,0.00,,,0.00,Wunderground v.1.15,2013-01-14 14:09:00,
2013-01-14 09:14:00,27.0,23.4,30.44,SW,234,7.0,9.0,86,0.00,,,0.00,Wunderground v.1.15,2013-01-14 14:14:00,
2013-01-14 09:20:00,27.0,23.6,30.44,North,355,6.0,6.0,87,0.00,,,0.00,Wunderground v.1.15,2013-01-14 14:20:00,
2013-01-14 09:25:00,27.0,23.4,30.45,WSW,256,6.0,9.0,86,0.00,,,0.00,Wunderground v.1.15,2013-01-14 14:25:00,
2013-01-14 09:30:00,26.9,23.3,30.45,West,261,7.0,11.0,86,0.00,,,0.00,Wunderground v.1.15,2013-01-14 14:30:00,
2013-01-14 09:35:00,26.9,23.3,30.45,West,265,7.0,11.0,86,0.00,,,0.00,Wunderground v.1.15,2013-01-14 14:35:00,
2013-01-14 09:40:00,26.8,23.2,30.45,WSW,253,8.0,13.0,86,0.00,,,0.00,Wunderground v.1.15,2013-01-14 14:40:00,
2013-01-14 09:46:00,26.7,23.1,30.46,West,275,8.0,13.0,86,0.00,,,0.00,Wunderground v.1.15,2013-01-14 14:46:00,
2013-01-14 09:52:00,26.7,23.1,30.46,WSW,257,6.0,10.0,86,0.00,,,0.00,Wunderground v.1.15,2013-01-14 14:52:00,
2013-01-14 09:58:00,26.7,22.8,30.46,West,272,6.0,10.0,85,0.00,,,0.00,Wunderground v.1.15,2013-01-14 14:58:00,
2013-01-14 10:04:00,26.7,22.8,30.46,West,263,4.0,15.0,85,0.00,,,0.00,Wunderground v.1.15,2013-01-14 15:04:00,
2013-01-14 10:09:00,26.8,22.9,30.46,NW,323,2.0,15.0,85,0.00,,,0.00,Wunderground v.1.15,2013-01-14 15:09:00,
2013-01-14 10:15:00,26.8,22.9,30.46,NNW,331,3.0,15.0,85,0.00,,,0.00,Wunderground v.1.15,2013-01-14 15:15:00,
2013-01-14 10:21:00,26.9,23.0,30.46,West,263,3.0,5.0,85,0.00,,,0.00,Wunderground v.1.15,2013-01-14 15:21:00,
2013-01-14 10:27:00,26.9,23.3,30.47,WSW,249,4.0,15.0,86,0.00,,,0.00,Wunderground v.1.15,2013-01-14 15:27:00,
2013-01-14 10:33:00,26.9,23.3,30.47,West,265,5.0,15.0,86,0.00,,,0.00,Wunderground v.1.15,2013-01-14 15:33:00,
2013-01-14 10:39:00,26.9,23.0,30.47,WSW,246,5.0,15.0,85,0.00,,,0.00,Wunderground v.1.15,2013-01-14 15:39:00,
2013-01-14 10:45:00,27.0,23.4,30.47,WNW,292,4.0,15.0,86,0.00,,,0.00,Wunderground v.1.15,2013-01-14 15:45:00,
2013-01-14 10:50:00,27.0,23.1,30.47,West,271,4.0,15.0,85,0.00,,,0.00,Wunderground v.1.15,2013-01-14 15:50:00,
2013-01-14 10:56:00,27.0,23.1,30.47,WSW,254,5.0,15.0,85,0.00,,,0.00,Wunderground v.1.15,2013-01-14 15:56:00,
2013-01-14 11:02:00,27.0,22.8,30.47,SSW,212,6.0,15.0,84,0.00,,,0.00,Wunderground v.1.15,2013-01-14 16:02:00,
2013-01-14 11:08:00,27.1,22.9,30.47,WNW,296,5.0,15.0,84,0.00,,,0.00,Wunderground v.1.15,2013-01-14 16:08:00,
2013-01-14 11:14:00,27.2,22.7,30.47,WSW,252,4.0,15.0,83,0.00,,,0.00,Wunderground v.1.15,2013-01-14 16:14:00,
2013-01-14 11:19:00,27.3,22.8,30.47,West,276,4.0,15.0,83,0.00,,,0.00,Wunderground v.1.15,2013-01-14 16:19:00,
2013-01-14 11:25:00,27.1,22.3,30.47,WSW,252,4.0,15.0,82,0.00,,,0.00,Wunderground v.1.15,2013-01-14 16:25:00,
2013-01-14 11:30:00,27.0,21.9,30.47,West,265,5.0,15.0,81,0.00,,,0.00,Wunderground v.1.15,2013-01-14 16:30:00,
2013-01-14 11:35:00,27.0,21.9,30.47,West,266,6.0,15.0,81,0.00,,,0.00,Wunderground v.1.15,2013-01-14 16:35:00,
2013-01-14 11:40:00,27.0,22.2,30.46,WSW,254,5.0,5.0,82,0.00,,,0.00,Wunderground v.1.15,2013-01-14 16:40:00,
2013-01-14 11:45:00,26.9,22.1,30.46,WSW,256,5.0,15.0,82,0.00,,,0.00,Wunderground v.1.15,2013-01-14 16:45:00,
2013-01-14 11:50:00,26.9,22.4,30.46,West,263,5.0,15.0,83,0.00,,,0.00,Wunderground v.1.15,2013-01-14 16:50:00,
2013-01-14 11:55:00,26.9,22.1,30.46,SSW,198,4.0,15.0,82,0.00,,,0.00,Wunderground v.1.15,2013-01-14 16:55:00,
2013-01-14 12:00:00,26.8,22.0,30.46,NW,305,5.0,5.0,82,0.00,,,0.00,Wunderground v.1.15,2013-01-14 17:00:00,
2013-01-14 12:06:00,26.7,22.2,30.46,West,259,5.0,10.0,83,0.00,,,0.00,Wunderground v.1.15,2013-01-14 17:06:00,
2013-01-14 12:11:00,26.7,22.2,30.46,West,264,6.0,6.0,83,0.00,,,0.00,Wunderground v.1.15,2013-01-14 17:11:00,
2013-01-14 12:16:00,26.6,22.1,30.46,SW,227,6.0,7.0,83,0.00,,,0.00,Wunderground v.1.15,2013-01-14 17:16:00,
2013-01-14 12:21:00,26.7,22.5,30.46,West,263,5.0,5.0,84,0.00,,,0.00,Wunderground v.1.15,2013-01-14 17:21:00,
2013-01-14 12:26:00,26.7,22.5,30.46,WSW,252,4.0,5.0,84,0.00,,,0.00,Wunderground v.1.15,2013-01-14 17:26:00,
2013-01-14 12:31:00,26.7,22.5,30.45,West,269,4.0,5.0,84,0.00,,,0.00,Wunderground v.1.15,2013-01-14 17:31:00,
2013-01-14 12:36:00,26.6,22.1,30.45,WSW,257,5.0,9.0,83,0.00,,,0.00,Wunderground v.1.15,2013-01-14 17:36:00,
2013-01-14 12:41:00,26.4,21.9,30.45,West,267,5.0,5.0,83,0.00,,,0.00,Wunderground v.1.15,2013-01-14 17:41:00,
2013-01-14 12:46:00,26.4,21.9,30.45,West,261,4.0,5.0,83,0.00,,,0.00,Wunderground v.1.15,2013-01-14 17:46:00,
2013-01-14 12:51:00,26.5,22.0,30.45,West,276,4.0,5.0,83,0.00,,,0.00,Wunderground v.1.15,2013-01-14 17:51:00,
2013-01-14 12:56:00,26.5,22.0,30.44,SSW,205,3.0,5.0,83,0.00,,,0.00,Wunderground v.1.15,2013-01-14 17:56:00,
2013-01-14 13:01:00,26.4,21.4,30.44,West,269,3.0,11.0,81,0.00,,,0.00,Wunderground v.1.15,2013-01-14 18:01:00,
2013-01-14 13:06:00,26.5,21.7,30.44,WNW,285,3.0,11.0,82,0.00,,,0.00,Wunderground v.1.15,2013-01-14 18:06:00,
2013-01-14 13:11:00,26.5,21.5,30.44,West,267,4.0,5.0,81,0.00,,,0.00,Wunderground v.1.15,2013-01-14 18:11:00,
2013-01-14 13:16:00,26.4,21.4,30.43,SW,217,4.0,11.0,81,0.00,,,0.00,Wunderground v.1.15,2013-01-14 18:16:00,
2013-01-14 13:21:00,26.3,21.0,30.43,SW,225,4.0,11.0,80,0.00,,,0.00,Wunderground v.1.15,2013-01-14 18:21:00,
2013-01-14 13:26:00,26.3,21.0,30.42,WSW,257,3.0,11.0,80,0.00,,,0.00,Wunderground v.1.15,2013-01-14 18:26:00,
2013-01-14 13:31:00,26.5,21.5,30.42,WSW,238,2.0,11.0,81,0.00,,,0.00,Wunderground v.1.15,2013-01-14 18:31:00,
2013-01-14 13:36:00,26.6,21.6,30.42,WSW,253,1.0,11.0,81,0.00,,,0.00,Wunderground v.1.15,2013-01-14 18:36:00,
2013-01-14 13:41:00,26.7,21.7,30.42,WSW,253,1.0,11.0,81,0.00,,,0.00,Wunderground v.1.15,2013-01-14 18:41:00,
2013-01-14 13:46:00,26.8,21.8,30.42,WSW,255,1.0,11.0,81,0.00,,,0.00,Wunderground v.1.15,2013-01-14 18:46:00,
2013-01-14 13:51:00,26.9,21.8,30.41,WSW,255,1.0,11.0,81,0.00,,,0.00,Wunderground v.1.15,2013-01-14 18:51:00,
2013-01-14 13:56:00,26.9,21.3,30.41,WSW,255,1.0,11.0,79,0.00,,,0.00,Wunderground v.1.15,2013-01-14 18:56:00,
2013-01-14 14:01:00,26.8,21.2,30.42,WSW,246,2.0,11.0,79,0.00,,,0.00,Wunderground v.1.15,2013-01-14 19:01:00,
2013-01-14 14:07:00,26.8,21.2,30.43,West,263,3.0,11.0,79,0.00,,,0.00,Wunderground v.1.15,2013-01-14 19:07:00,
2013-01-14 14:12:00,26.9,21.3,30.44,West,261,3.0,11.0,79,0.00,,,0.00,Wunderground v.1.15,2013-01-14 19:12:00,
2013-01-14 14:17:00,27.1,21.5,30.45,WSW,258,2.0,11.0,79,0.00,,,0.00,Wunderground v.1.15,2013-01-14 19:17:00,
2013-01-14 14:22:00,27.0,21.4,30.46,NW,317,2.0,11.0,79,0.00,,,0.00,Wunderground v.1.15,2013-01-14 19:22:00,
2013-01-14 14:28:00,27.0,21.4,30.46,NW,313,3.0,11.0,79,0.00,,,0.00,Wunderground v.1.15,2013-01-14 19:28:00,
2013-01-14 14:34:00,26.9,21.0,30.46,NNW,329,3.0,11.0,78,0.00,,,0.00,Wunderground v.1.15,2013-01-14 19:34:00,
2013-01-14 14:40:00,26.9,21.3,30.46,NW,306,2.0,2.0,79,0.00,,,0.00,Wunderground v.1.15,2013-01-14 19:40:00,
2013-01-14 14:46:00,27.0,21.7,30.45,NNW,338,2.0,11.0,80,0.00,,,0.00,Wunderground v.1.15,2013-01-14 19:46:00,
2013-01-14 14:51:00,26.9,21.8,30.46,West,270,1.0,11.0,81,0.00,,,0.00,Wunderground v.1.15,2013-01-14 19:51:00,
2013-01-14 14:57:00,27.0,21.9,30.46,West,269,2.0,11.0,81,0.00,,,0.00,Wunderground v.1.15,2013-01-14 19:57:00,
2013-01-14 15:02:00,26.9,22.1,30.47,West,276,3.0,4.0,82,0.00,,,0.00,Wunderground v.1.15,2013-01-14 20:02:00,
2013-01-14 15:08:00,26.7,21.9,30.47,West,271,3.0,5.0,82,0.00,,,0.00,Wunderground v.1.15,2013-01-14 20:08:00,
2013-01-14 15:14:00,26.5,21.7,30.47,West,265,3.0,8.0,82,0.00,,,0.00,Wunderground v.1.15,2013-01-14 20:14:00,
2013-01-14 15:20:00,26.5,21.7,30.47,West,273,4.0,4.0,82,0.00,,,0.00,Wunderground v.1.15,2013-01-14 20:20:00,
2013-01-14 15:26:00,26.5,22.0,30.47,WNW,282,5.0,7.0,83,0.00,,,0.00,Wunderground v.1.15,2013-01-14 20:26:00,
2013-01-14 15:31:00,26.5,22.0,30.49,West,270,4.0,4.0,83,0.00,,,0.00,Wunderground v.1.15,2013-01-14 20:31:00,
2013-01-14 15:37:00,26.5,22.0,30.48,WSW,245,4.0,6.0,83,0.00,,,0.00,Wunderground v.1.15,2013-01-14 20:37:00,
2013-01-14 15:43:00,26.4,21.9,30.49,WSW,254,3.0,5.0,83,0.00,,,0.00,Wunderground v.1.15,2013-01-14 20:43:00,
2013-01-14 15:49:00,26.4,21.9,30.49,NW,304,3.0,5.0,83,0.00,,,0.00,Wunderground v.1.15,2013-01-14 20:49:00,
2013-01-14 15:55:00,26.5,22.3,30.49,West,271,2.0,3.0,84,0.00,,,0.00,Wunderground v.1.15,2013-01-14 20:55:00,
2013-01-14 16:00:00,26.5,22.0,30.48,West,264,2.0,2.0,83,0.00,,,0.00,Wunderground v.1.15,2013-01-14 21:00:00,
2013-01-14 16:06:00,26.5,22.0,30.50,West,279,2.0,7.0,83,0.00,,,0.00,Wunderground v.1.15,2013-01-14 21:06:00,
2013-01-14 16:13:00,26.3,21.8,30.50,NW,311,3.0,7.0,83,0.00,,,0.00,Wunderground v.1.15,2013-01-14 21:13:00,
2013-01-14 16:19:00,26.4,21.9,30.50,WNW,290,2.0,7.0,83,0.00,,,0.00,Wunderground v.1.15,2013-01-14 21:19:00,
2013-01-14 16:24:00,26.3,21.8,30.51,NNW,329,3.0,7.0,83,0.00,,,0.00,Wunderground v.1.15,2013-01-14 21:24:00,
2013-01-14 16:30:00,26.4,21.9,30.51,WNW,284,2.0,7.0,83,0.00,,,0.00,Wunderground v.1.15,2013-01-14 21:30:00,
2013-01-14 16:36:00,26.5,22.0,30.51,NW,309,2.0,7.0,83,0.00,,,0.00,Wunderground v.1.15,2013-01-14 21:36:00,
2013-01-14 16:41:00,26.5,21.7,30.51,NNW,346,3.0,7.0,82,0.00,,,0.00,Wunderground v.1.15,2013-01-14 21:41:00,
2013-01-14 16:46:00,26.5,21.7,30.52,WNW,282,2.0,7.0,82,0.00,,,0.00,Wunderground v.1.15,2013-01-14 21:46:00,
2013-01-14 16:51:00,26.5,21.7,30.51,WNW,290,2.0,7.0,82,0.00,,,0.00,Wunderground v.1.15,2013-01-14 21:51:00,
2013-01-14 16:56:00,26.5,21.7,30.50,West,275,2.0,7.0,82,0.00,,,0.00,Wunderground v.1.15,2013-01-14 21:56:00,
2013-01-14 17:01:00,26.4,21.4,30.50,NW,311,2.0,7.0,81,0.00,,,0.00,Wunderground v.1.15,2013-01-14 22:01:00,
2013-01-14 17:06:00,26.4,21.7,30.50,NW,311,2.0,7.0,82,0.00,,,0.00,Wunderground v.1.15,2013-01-14 22:06:00,
2013-01-14 17:11:00,26.4,21.7,30.50,West,281,2.0,7.0,82,0.00,,,0.00,Wunderground v.1.15,2013-01-14 22:11:00,
2013-01-14 17:16:00,26.4,21.7,30.50,WNW,296,2.0,7.0,82,0.00,,,0.00,Wunderground v.1.15,2013-01-14 22:16:00,
2013-01-14 17:21:00,26.4,21.7,30.52,NW,321,2.0,7.0,82,0.00,,,0.00,Wunderground v.1.15,2013-01-14 22:21:00,
2013-01-14 17:26:00,26.4,21.7,30.53,WNW,300,2.0,7.0,82,0.00,,,0.00,Wunderground v.1.15,2013-01-14 22:26:00,
2013-01-14 17:31:00,26.4,21.7,30.54,West,267,3.0,7.0,82,0.00,,,0.00,Wunderground v.1.15,2013-01-14 22:31:00,
2013-01-14 17:37:00,26.4,21.9,30.55,West,275,2.0,7.0,83,0.00,,,0.00,Wunderground v.1.15,2013-01-14 22:37:00,
2013-01-14 17:42:00,26.4,21.9,30.54,West,259,2.0,7.0,83,0.00,,,0.00,Wunderground v.1.15,2013-01-14 22:42:00,
2013-01-14 17:47:00,26.4,21.9,30.55,West,262,1.0,7.0,83,0.00,,,0.00,Wunderground v.1.15,2013-01-14 22:47:00,
2013-01-14 17:52:00,26.4,21.9,30.55,West,277,2.0,7.0,83,0.00,,,0.00,Wunderground v.1.15,2013-01-14 22:52:00,
2013-01-14 17:58:00,26.4,21.9,30.55,West,271,2.0,7.0,83,0.00,,,0.00,Wunderground v.1.15,2013-01-14 22:58:00,
2013-01-14 18:03:00,26.5,22.0,30.55,WSW,254,2.0,3.0,83,0.00,,,0.00,Wunderground v.1.15,2013-01-14 23:03:00,
2013-01-14 18:08:00,26.4,21.9,30.55,West,269,2.0,4.0,83,0.00,,,0.00,Wunderground v.1.15,2013-01-14 23:08:00,
2013-01-14 18:14:00,26.3,21.8,30.54,West,276,2.0,4.0,83,0.00,,,0.00,Wunderground v.1.15,2013-01-14 23:14:00,
2013-01-14 18:20:00,26.3,21.8,30.53,West,265,3.0,7.0,83,0.00,,,0.00,Wunderground v.1.15,2013-01-14 23:20:00,
2013-01-14 18:26:00,26.3,21.8,30.51,WNW,296,2.0,7.0,83,0.00,,,0.00,Wunderground v.1.15,2013-01-14 23:26:00,
2013-01-14 18:32:00,26.3,22.1,30.50,WNW,296,1.0,1.0,84,0.00,,,0.00,Wunderground v.1.15,2013-01-14 23:32:00,
2013-01-14 18:38:00,26.2,21.7,30.49,WNW,296,1.0,3.0,83,0.00,,,0.00,Wunderground v.1.15,2013-01-14 23:38:00,
2013-01-14 18:44:00,26.2,21.7,30.49,WNW,295,1.0,2.0,83,0.00,,,0.00,Wunderground v.1.15,2013-01-14 23:44:00,
2013-01-14 18:49:00,26.2,21.7,30.48,WNW,295,0.0,2.0,83,0.00,,,0.00,Wunderground v.1.15,2013-01-14 23:49:00,
2013-01-14 18:56:00,26.2,21.5,30.49,North,11,0.0,2.0,82,0.00,,,0.00,Wunderground v.1.15,2013-01-14 23:56:00,
2013-01-14 19:01:00,26.1,21.4,30.49,North,11,0.0,6.0,82,0.00,,,0.00,Wunderground v.1.15,2013-01-15 00:01:00,
2013-01-14 19:13:00,26.2,21.2,30.50,North,11,0.0,0.0,81,0.00,,,0.00,Wunderground v.1.15,2013-01-15 00:13:00,
2013-01-14 19:19:00,26.2,21.2,30.50,North,5,0.0,2.0,81,0.00,,,0.00,Wunderground v.1.15,2013-01-15 00:19:00,
2013-01-14 19:25:00,26.2,21.2,30.51,West,281,0.0,3.0,81,0.00,,,0.00,Wunderground v.1.15,2013-01-15 00:25:00,
2013-01-14 19:31:00,26.3,21.6,30.53,West,269,0.0,3.0,82,0.00,,,0.00,Wunderground v.1.15,2013-01-15 00:31:00,
2013-01-14 19:36:00,26.3,21.3,30.54,West,269,1.0,2.0,81,0.00,,,0.00,Wunderground v.1.15,2013-01-15 00:36:00,
2013-01-14 19:42:00,26.3,21.3,30.55,West,259,2.0,4.0,81,0.00,,,0.00,Wunderground v.1.15,2013-01-15 00:42:00,
2013-01-14 19:48:00,26.4,21.4,30.54,West,259,2.0,3.0,81,0.00,,,0.00,Wunderground v.1.15,2013-01-15 00:48:00,
2013-01-14 19:54:00,26.4,21.4,30.54,West,259,1.0,2.0,81,0.00,,,0.00,Wunderground v.1.15,2013-01-15 00:54:00,
2013-01-14 19:59:00,26.4,21.4,30.52,West,259,1.0,2.0,81,0.00,,,0.00,Wunderground v.1.15,2013-01-15 00:59:00,
2013-01-14 20:05:00,26.4,21.4,30.51,West,259,1.0,4.0,81,0.00,,,0.00,Wunderground v.1.15,2013-01-15 01:05:00,
2013-01-14 20:11:00,26.4,21.4,30.53,West,259,1.0,4.0,81,0.00,,,0.00,Wunderground v.1.15,2013-01-15 01:11:00,
2013-01-14 20:17:00,26.4,21.4,30.52,West,259,1.0,4.0,81,0.00,,,0.00,Wunderground v.1.15,2013-01-15 01:17:00,
2013-01-14 20:22:00,26.4,21.4,30.53,West,259,0.0,4.0,81,0.00,,,0.00,Wunderground v.1.15,2013-01-15 01:22:00,
2013-01-14 20:28:00,26.4,21.7,30.52,West,259,0.0,4.0,82,0.00,,,0.00,Wunderground v.1.15,2013-01-15 01:28:00,
2013-01-14 20:33:00,26.4,21.7,30.51,West,259,0.0,4.0,82,0.00,,,0.00,Wunderground v.1.15,2013-01-15 01:33:00,
2013-01-14 20:38:00,26.4,21.7,30.51,West,259,0.0,4.0,82,0.00,,,0.00,Wunderground v.1.15,2013-01-15 01:38:00,
2013-01-14 20:43:00,26.4,21.9,30.51,West,259,0.0,4.0,83,0.00,,,0.00,Wunderground v.1.15,2013-01-15 01:43:00,
2013-01-14 20:48:00,26.4,21.9,30.51,West,259,0.0,4.0,83,0.00,,,0.00,Wunderground v.1.15,2013-01-15 01:48:00,
2013-01-14 20:53:00,26.4,21.9,30.51,West,259,0.0,4.0,83,0.00,,,0.00,Wunderground v.1.15,2013-01-15 01:53:00,
2013-01-14 20:58:00,26.3,21.8,30.51,West,259,0.0,4.0,83,0.00,,,0.00,Wunderground v.1.15,2013-01-15 01:58:00,
2013-01-14 21:04:00,26.3,21.8,30.51,West,259,0.0,1.0,83,0.00,,,0.00,Wunderground v.1.15,2013-01-15 02:04:00,
2013-01-14 21:10:00,26.3,21.8,30.50,West,259,0.0,0.0,83,0.00,,,0.00,Wunderground v.1.15,2013-01-15 02:10:00,
2013-01-14 21:16:00,26.3,22.1,30.51,West,259,0.0,0.0,84,0.00,,,0.00,Wunderground v.1.15,2013-01-15 02:16:00,
2013-01-14 21:21:00,26.3,22.1,30.49,West,259,0.0,0.0,84,0.00,,,0.00,Wunderground v.1.15,2013-01-15 02:21:00,
2013-01-14 21:27:00,26.2,22.0,30.50,West,259,0.0,0.0,84,0.00,,,0.00,Wunderground v.1.15,2013-01-15 02:27:00,
2013-01-14 21:32:00,26.2,22.0,30.50,West,259,0.0,0.0,84,0.00,,,0.00,Wunderground v.1.15,2013-01-15 02:32:00,
2013-01-14 21:38:00,26.2,22.0,30.50,West,259,0.0,0.0,84,0.00,,,0.00,Wunderground v.1.15,2013-01-15 02:38:00,
2013-01-14 21:44:00,26.2,22.0,30.50,West,259,0.0,0.0,84,0.00,,,0.00,Wunderground v.1.15,2013-01-15 02:44:00,
2013-01-14 21:49:00,26.1,22.2,30.49,West,259,0.0,0.0,85,0.00,,,0.00,Wunderground v.1.15,2013-01-15 02:49:00,
2013-01-14 21:55:00,26.1,21.9,30.49,West,259,0.0,0.0,84,0.00,,,0.00,Wunderground v.1.15,2013-01-15 02:55:00,
2013-01-14 22:01:00,26.1,22.2,30.49,West,259,0.0,2.0,85,0.00,,,0.00,Wunderground v.1.15,2013-01-15 03:01:00,
2013-01-14 22:07:00,26.1,22.2,30.49,West,259,0.0,2.0,85,0.00,,,0.00,Wunderground v.1.15,2013-01-15 03:07:00,
2013-01-14 22:13:00,26.1,22.2,30.49,West,259,0.0,2.0,85,0.00,,,0.00,Wunderground v.1.15,2013-01-15 03:13:00,
2013-01-14 22:18:00,26.1,22.2,30.49,West,259,0.0,2.0,85,0.00,,,0.00,Wunderground v.1.15,2013-01-15 03:18:00,
2013-01-14 22:24:00,26.2,22.3,30.49,West,259,0.0,2.0,85,0.00,,,0.00,Wunderground v.1.15,2013-01-15 03:24:00,
2013-01-14 22:30:00,26.2,22.3,30.49,West,259,0.0,2.0,85,0.00,,,0.00,Wunderground v.1.15,2013-01-15 03:30:00,
2013-01-14 22:36:00,26.2,22.0,30.49,West,259,0.0,2.0,84,0.00,,,0.00,Wunderground v.1.15,2013-01-15 03:36:00,
2013-01-14 22:42:00,26.1,21.4,30.49,WNW,291,1.0,2.0,82,0.00,,,0.00,Wunderground v.1.15,2013-01-15 03:42:00,
2013-01-14 22:47:00,26.1,21.4,30.49,WNW,291,0.0,2.0,82,0.00,,,0.00,Wunderground v.1.15,2013-01-15 03:47:00,
2013-01-14 22:53:00,26.2,21.2,30.49,WNW,291,0.0,2.0,81,0.00,,,0.00,Wunderground v.1.15,2013-01-15 03:53:00,
2013-01-14 22:59:00,26.2,21.2,30.48,WNW,291,0.0,2.0,81,0.00,,,0.00,Wunderground v.1.15,2013-01-15 03:59:00,
2013-01-14 23:05:00,26.2,21.5,30.49,WNW,291,0.0,2.0,82,0.00,,,0.00,Wunderground v.1.15,2013-01-15 04:05:00,
2013-01-14 23:11:00,26.3,21.6,30.48,WNW,291,0.0,2.0,82,0.00,,,0.00,Wunderground v.1.15,2013-01-15 04:11:00,
2013-01-14 23:17:00,26.3,21.6,30.48,NE,40,0.0,3.0,82,0.00,,,0.00,Wunderground v.1.15,2013-01-15 04:17:00,
2013-01-14 23:22:00,26.3,21.3,30.48,NE,40,1.0,2.0,81,0.00,,,0.00,Wunderground v.1.15,2013-01-15 04:22:00,
2013-01-14 23:28:00,26.3,21.0,30.48,NE,40,0.0,2.0,80,0.00,,,0.00,Wunderground v.1.15,2013-01-15 04:28:00,
2013-01-14 23:33:00,26.3,21.3,30.48,NNE,29,0.0,2.0,81,0.00,,,0.00,Wunderground v.1.15,2013-01-15 04:33:00,
2013-01-14 23:38:00,26.3,21.3,30.48,NNE,29,0.0,2.0,81,0.00,,,0.00,Wunderground v.1.15,2013-01-15 04:38:00,
2013-01-14 23:44:00,26.3,21.3,30.48,NNE,29,0.0,2.0,81,0.00,,,0.00,Wunderground v.1.15,2013-01-15 04:44:00,
2013-01-14 23:49:00,26.3,21.3,30.48,NNE,29,0.0,2.0,81,0.00,,,0.00,Wunderground v.1.15,2013-01-15 04:49:00,
2013-01-14 23:54:00,26.4,21.4,30.48,NNE,29,0.0,2.0,81,0.00,,,0.00,Wunderground v.1.15,2013-01-15 04:54:00,
2013-01-14 23:59:00,26.4,21.4,30.48,NNE,29,0.0,2.0,81,0.00,,,0.00,Wunderground v.1.15,2013-01-15 04:59:00,